sensor_id;sensor_type;location;lat;lon;timestamp;temperature;humidity
41437;DHT22;27178;49.460;10.850;2023-04-01T00:00:55;13.10;73.20
41437;DHT22;27178;49.460;10.850;2023-04-01T00:03:25;13.10;73.20
41437;DHT22;27178;49.460;10.850;2023-04-01T00:05:54;13.10;73.30
41437;DHT22;27178;49.460;10.850;2023-04-01T00:08:24;13.10;73.20
41437;DHT22;27178;49.460;10.850;2023-04-01T00:10:55;13.10;73.20
41437;DHT22;27178;49.460;10.850;2023-04-01T00:13:24;13.10;73.30
41437;DHT22;27178;49.460;10.850;2023-04-01T00:15:53;13.10;73.30
41437;DHT22;27178;49.460;10.850;2023-04-01T00:18:23;13.10;73.30
41437;DHT22;27178;49.460;10.850;2023-04-01T00:20:52;13.10;73.20
41437;DHT22;27178;49.460;10.850;2023-04-01T00:23:20;13.10;73.20
41437;DHT22;27178;49.460;10.850;2023-04-01T00:25:49;13.10;73.20
41437;DHT22;27178;49.460;10.850;2023-04-01T00:28:19;13.10;73.00
41437;DHT22;27178;49.460;10.850;2023-04-01T00:30:48;13.10;73.00
41437;DHT22;27178;49.460;10.850;2023-04-01T00:33:17;13.10;73.00
41437;DHT22;27178;49.460;10.850;2023-04-01T00:35:45;13.10;73.00
41437;DHT22;27178;49.460;10.850;2023-04-01T00:38:14;13.10;72.80
41437;DHT22;27178;49.460;10.850;2023-04-01T00:40:44;13.10;72.70
41437;DHT22;27178;49.460;10.850;2023-04-01T00:43:15;13.10;72.70
41437;DHT22;27178;49.460;10.850;2023-04-01T00:45:48;13.20;72.80
41437;DHT22;27178;49.460;10.850;2023-04-01T00:48:18;13.20;72.80
41437;DHT22;27178;49.460;10.850;2023-04-01T00:50:51;13.20;72.80
41437;DHT22;27178;49.460;10.850;2023-04-01T00:53:20;13.20;72.80
41437;DHT22;27178;49.460;10.850;2023-04-01T00:55:53;13.20;72.80
41437;DHT22;27178;49.460;10.850;2023-04-01T00:58:24;13.20;72.80
41437;DHT22;27178;49.460;10.850;2023-04-01T01:00:55;13.10;72.70
41437;DHT22;27178;49.460;10.850;2023-04-01T01:03:25;13.20;72.60
41437;DHT22;27178;49.460;10.850;2023-04-01T01:06:09;13.20;72.60
41437;DHT22;27178;49.460;10.850;2023-04-01T01:08:51;13.20;72.80
41437;DHT22;27178;49.460;10.850;2023-04-01T01:11:24;13.20;72.60
41437;DHT22;27178;49.460;10.850;2023-04-01T01:13:59;13.20;72.60
41437;DHT22;27178;49.460;10.850;2023-04-01T01:16:36;13.20;72.60
41437;DHT22;27178;49.460;10.850;2023-04-01T01:19:10;13.20;72.50
41437;DHT22;27178;49.460;10.850;2023-04-01T01:21:55;13.20;72.40
41437;DHT22;27178;49.460;10.850;2023-04-01T01:24:52;13.20;72.40
41437;DHT22;27178;49.460;10.850;2023-04-01T01:27:22;13.20;72.40
41437;DHT22;27178;49.460;10.850;2023-04-01T01:30:14;13.20;72.30
41437;DHT22;27178;49.460;10.850;2023-04-01T01:33:02;13.20;72.40
41437;DHT22;27178;49.460;10.850;2023-04-01T01:35:38;13.20;72.50
41437;DHT22;27178;49.460;10.850;2023-04-01T01:38:13;13.20;72.40
41437;DHT22;27178;49.460;10.850;2023-04-01T01:40:43;13.20;72.40
41437;DHT22;27178;49.460;10.850;2023-04-01T01:43:15;13.10;72.40
41437;DHT22;27178;49.460;10.850;2023-04-01T01:45:48;13.20;72.40
41437;DHT22;27178;49.460;10.850;2023-04-01T01:48:18;13.10;72.40
41437;DHT22;27178;49.460;10.850;2023-04-01T01:50:49;13.20;72.50
41437;DHT22;27178;49.460;10.850;2023-04-01T01:53:17;13.10;72.40
41437;DHT22;27178;49.460;10.850;2023-04-01T01:55:47;13.20;72.40
41437;DHT22;27178;49.460;10.850;2023-04-01T01:58:19;13.20;72.30
41437;DHT22;27178;49.460;10.850;2023-04-01T02:00:51;13.10;72.30
41437;DHT22;27178;49.460;10.850;2023-04-01T02:03:22;13.10;72.30
41437;DHT22;27178;49.460;10.850;2023-04-01T02:05:56;13.20;72.40
41437;DHT22;27178;49.460;10.850;2023-04-01T02:08:27;13.20;72.30
41437;DHT22;27178;49.460;10.850;2023-04-01T02:11:04;13.20;72.30
41437;DHT22;27178;49.460;10.850;2023-04-01T02:13:37;13.20;72.20
41437;DHT22;27178;49.460;10.850;2023-04-01T02:16:11;13.20;72.20
41437;DHT22;27178;49.460;10.850;2023-04-01T02:18:43;13.20;72.20
41437;DHT22;27178;49.460;10.850;2023-04-01T02:21:15;13.20;72.20
41437;DHT22;27178;49.460;10.850;2023-04-01T02:23:45;13.10;72.10
41437;DHT22;27178;49.460;10.850;2023-04-01T02:26:15;13.10;72.00
41437;DHT22;27178;49.460;10.850;2023-04-01T02:28:46;13.10;71.90
41437;DHT22;27178;49.460;10.850;2023-04-01T02:31:15;13.10;71.90
41437;DHT22;27178;49.460;10.850;2023-04-01T02:33:44;13.10;71.90
41437;DHT22;27178;49.460;10.850;2023-04-01T02:36:15;13.10;71.80
41437;DHT22;27178;49.460;10.850;2023-04-01T02:38:45;13.10;71.90
41437;DHT22;27178;49.460;10.850;2023-04-01T02:41:13;13.10;71.80
41437;DHT22;27178;49.460;10.850;2023-04-01T02:43:45;13.10;71.90
41437;DHT22;27178;49.460;10.850;2023-04-01T02:46:13;13.10;71.70
41437;DHT22;27178;49.460;10.850;2023-04-01T02:48:41;13.10;71.70
41437;DHT22;27178;49.460;10.850;2023-04-01T02:51:10;13.10;71.80
41437;DHT22;27178;49.460;10.850;2023-04-01T02:53:40;13.10;71.80
41437;DHT22;27178;49.460;10.850;2023-04-01T02:56:08;13.00;71.90
41437;DHT22;27178;49.460;10.850;2023-04-01T02:58:36;13.00;71.90
41437;DHT22;27178;49.460;10.850;2023-04-01T03:01:05;13.10;71.90
41437;DHT22;27178;49.460;10.850;2023-04-01T03:03:35;13.00;71.90
41437;DHT22;27178;49.460;10.850;2023-04-01T03:06:07;13.10;71.90
41437;DHT22;27178;49.460;10.850;2023-04-01T03:08:35;13.00;71.90
41437;DHT22;27178;49.460;10.850;2023-04-01T03:11:05;13.10;71.90
41437;DHT22;27178;49.460;10.850;2023-04-01T03:13:34;13.00;71.70
41437;DHT22;27178;49.460;10.850;2023-04-01T03:16:03;13.00;71.80
41437;DHT22;27178;49.460;10.850;2023-04-01T03:18:32;13.10;71.90
41437;DHT22;27178;49.460;10.850;2023-04-01T03:21:13;13.00;72.70
41437;DHT22;27178;49.460;10.850;2023-04-01T03:23:42;13.00;71.70
41437;DHT22;27178;49.460;10.850;2023-04-01T03:26:11;13.00;71.70
41437;DHT22;27178;49.460;10.850;2023-04-01T03:28:40;13.00;71.60
41437;DHT22;27178;49.460;10.850;2023-04-01T03:31:09;13.00;71.70
41437;DHT22;27178;49.460;10.850;2023-04-01T03:33:38;13.00;71.70
41437;DHT22;27178;49.460;10.850;2023-04-01T03:36:06;13.00;71.70
41437;DHT22;27178;49.460;10.850;2023-04-01T03:38:35;13.00;71.70
41437;DHT22;27178;49.460;10.850;2023-04-01T03:41:04;13.00;71.70
41437;DHT22;27178;49.460;10.850;2023-04-01T03:43:34;13.00;71.70
41437;DHT22;27178;49.460;10.850;2023-04-01T03:46:02;12.90;71.60
41437;DHT22;27178;49.460;10.850;2023-04-01T03:48:31;13.00;71.70
41437;DHT22;27178;49.460;10.850;2023-04-01T03:50:59;13.00;71.70
41437;DHT22;27178;49.460;10.850;2023-04-01T03:53:28;12.90;71.60
41437;DHT22;27178;49.460;10.850;2023-04-01T03:55:56;12.90;71.50
41437;DHT22;27178;49.460;10.850;2023-04-01T03:58:25;12.90;71.60
41437;DHT22;27178;49.460;10.850;2023-04-01T04:00:55;12.90;71.70
41437;DHT22;27178;49.460;10.850;2023-04-01T04:03:23;12.90;71.70
41437;DHT22;27178;49.460;10.850;2023-04-01T04:05:52;12.90;71.70
41437;DHT22;27178;49.460;10.850;2023-04-01T04:08:20;12.90;71.50
41437;DHT22;27178;49.460;10.850;2023-04-01T04:10:55;12.90;71.40
41437;DHT22;27178;49.460;10.850;2023-04-01T04:13:23;12.90;71.40
41437;DHT22;27178;49.460;10.850;2023-04-01T04:15:51;12.90;71.40
41437;DHT22;27178;49.460;10.850;2023-04-01T04:18:21;12.90;71.50
41437;DHT22;27178;49.460;10.850;2023-04-01T04:20:50;12.80;71.50
41437;DHT22;27178;49.460;10.850;2023-04-01T04:23:18;12.80;71.50
41437;DHT22;27178;49.460;10.850;2023-04-01T04:25:54;12.90;71.50
41437;DHT22;27178;49.460;10.850;2023-04-01T04:28:23;12.90;71.50
41437;DHT22;27178;49.460;10.850;2023-04-01T04:30:51;12.80;71.40
41437;DHT22;27178;49.460;10.850;2023-04-01T04:33:21;12.80;71.50
41437;DHT22;27178;49.460;10.850;2023-04-01T04:35:50;12.80;71.70
41437;DHT22;27178;49.460;10.850;2023-04-01T04:38:18;12.80;71.60
41437;DHT22;27178;49.460;10.850;2023-04-01T04:40:47;12.80;71.70
41437;DHT22;27178;49.460;10.850;2023-04-01T04:43:17;12.80;71.70
41437;DHT22;27178;49.460;10.850;2023-04-01T04:45:45;12.80;71.70
41437;DHT22;27178;49.460;10.850;2023-04-01T04:48:15;12.80;71.70
41437;DHT22;27178;49.460;10.850;2023-04-01T04:50:48;12.80;71.90
41437;DHT22;27178;49.460;10.850;2023-04-01T04:53:18;12.80;71.90
41437;DHT22;27178;49.460;10.850;2023-04-01T04:55:47;12.70;72.90
41437;DHT22;27178;49.460;10.850;2023-04-01T04:58:16;12.80;72.10
41437;DHT22;27178;49.460;10.850;2023-04-01T05:00:45;12.70;72.10
41437;DHT22;27178;49.460;10.850;2023-04-01T05:03:14;12.70;72.20
41437;DHT22;27178;49.460;10.850;2023-04-01T05:05:51;12.70;72.20
41437;DHT22;27178;49.460;10.850;2023-04-01T05:08:19;12.70;72.40
41437;DHT22;27178;49.460;10.850;2023-04-01T05:10:48;12.70;72.20
41437;DHT22;27178;49.460;10.850;2023-04-01T05:13:17;12.70;72.40
41437;DHT22;27178;49.460;10.850;2023-04-01T05:15:45;12.70;72.50
41437;DHT22;27178;49.460;10.850;2023-04-01T05:18:13;12.70;72.50
41437;DHT22;27178;49.460;10.850;2023-04-01T05:20:46;12.70;72.50
41437;DHT22;27178;49.460;10.850;2023-04-01T05:23:17;12.70;72.60
41437;DHT22;27178;49.460;10.850;2023-04-01T05:25:47;12.70;72.60
41437;DHT22;27178;49.460;10.850;2023-04-01T05:28:17;12.70;72.70
41437;DHT22;27178;49.460;10.850;2023-04-01T05:30:45;12.70;72.70
41437;DHT22;27178;49.460;10.850;2023-04-01T05:33:14;12.70;72.80
41437;DHT22;27178;49.460;10.850;2023-04-01T05:35:43;12.70;72.70
41437;DHT22;27178;49.460;10.850;2023-04-01T05:38:11;12.70;72.70
41437;DHT22;27178;49.460;10.850;2023-04-01T05:40:41;12.70;72.80
41437;DHT22;27178;49.460;10.850;2023-04-01T05:43:10;12.70;72.90
41437;DHT22;27178;49.460;10.850;2023-04-01T05:45:38;12.70;72.90
41437;DHT22;27178;49.460;10.850;2023-04-01T05:48:07;12.70;72.90
41437;DHT22;27178;49.460;10.850;2023-04-01T05:50:35;12.70;73.00
41437;DHT22;27178;49.460;10.850;2023-04-01T05:53:03;12.70;73.10
41437;DHT22;27178;49.460;10.850;2023-04-01T05:55:31;12.70;73.00
41437;DHT22;27178;49.460;10.850;2023-04-01T05:58:02;12.70;73.10
41437;DHT22;27178;49.460;10.850;2023-04-01T06:00:30;12.70;73.30
41437;DHT22;27178;49.460;10.850;2023-04-01T06:02:58;12.60;73.10
41437;DHT22;27178;49.460;10.850;2023-04-01T06:05:29;12.70;73.30
41437;DHT22;27178;49.460;10.850;2023-04-01T06:08:00;12.70;73.30
41437;DHT22;27178;49.460;10.850;2023-04-01T06:10:37;12.70;73.40
41437;DHT22;27178;49.460;10.850;2023-04-01T06:13:12;12.70;73.50
41437;DHT22;27178;49.460;10.850;2023-04-01T06:15:53;12.70;73.60
41437;DHT22;27178;49.460;10.850;2023-04-01T06:18:48;12.80;73.60
41437;DHT22;27178;49.460;10.850;2023-04-01T06:21:42;12.80;73.60
41437;DHT22;27178;49.460;10.850;2023-04-01T06:24:27;12.80;73.60
41437;DHT22;27178;49.460;10.850;2023-04-01T06:27:04;12.80;73.60
41437;DHT22;27178;49.460;10.850;2023-04-01T06:29:47;12.90;73.60
41437;DHT22;27178;49.460;10.850;2023-04-01T06:32:30;12.80;73.40
41437;DHT22;27178;49.460;10.850;2023-04-01T06:35:25;12.90;73.50
41437;DHT22;27178;49.460;10.850;2023-04-01T06:38:07;12.90;73.50
41437;DHT22;27178;49.460;10.850;2023-04-01T06:43:43;12.90;73.10
41437;DHT22;27178;49.460;10.850;2023-04-01T06:46:21;12.90;73.00
41437;DHT22;27178;49.460;10.850;2023-04-01T06:49:04;12.90;73.20
41437;DHT22;27178;49.460;10.850;2023-04-01T06:51:47;13.00;73.20
41437;DHT22;27178;49.460;10.850;2023-04-01T06:54:23;13.00;72.80
41437;DHT22;27178;49.460;10.850;2023-04-01T06:56:55;13.10;73.00
41437;DHT22;27178;49.460;10.850;2023-04-01T06:59:27;13.00;72.80
41437;DHT22;27178;49.460;10.850;2023-04-01T07:02:00;13.10;72.60
41437;DHT22;27178;49.460;10.850;2023-04-01T07:04:31;13.10;72.20
41437;DHT22;27178;49.460;10.850;2023-04-01T07:07:04;13.10;72.30
41437;DHT22;27178;49.460;10.850;2023-04-01T07:09:36;13.10;72.00
41437;DHT22;27178;49.460;10.850;2023-04-01T07:12:11;13.20;71.90
41437;DHT22;27178;49.460;10.850;2023-04-01T07:14:43;13.20;72.10
41437;DHT22;27178;49.460;10.850;2023-04-01T07:17:16;13.20;72.90
41437;DHT22;27178;49.460;10.850;2023-04-01T07:19:47;13.20;72.10
41437;DHT22;27178;49.460;10.850;2023-04-01T07:22:25;13.20;72.10
41437;DHT22;27178;49.460;10.850;2023-04-01T07:24:55;13.30;72.20
41437;DHT22;27178;49.460;10.850;2023-04-01T07:27:25;13.30;72.10
41437;DHT22;27178;49.460;10.850;2023-04-01T07:29:56;13.30;72.10
41437;DHT22;27178;49.460;10.850;2023-04-01T07:32:34;13.30;72.00
41437;DHT22;27178;49.460;10.850;2023-04-01T07:35:17;13.40;71.60
41437;DHT22;27178;49.460;10.850;2023-04-01T07:38:08;13.40;71.30
41437;DHT22;27178;49.460;10.850;2023-04-01T07:40:45;13.40;71.30
41437;DHT22;27178;49.460;10.850;2023-04-01T07:43:41;13.60;71.50
41437;DHT22;27178;49.460;10.850;2023-04-01T07:46:22;13.50;71.30
41437;DHT22;27178;49.460;10.850;2023-04-01T07:48:58;13.50;71.50
41437;DHT22;27178;49.460;10.850;2023-04-01T07:51:31;13.50;71.40
41437;DHT22;27178;49.460;10.850;2023-04-01T07:54:08;13.60;71.40
41437;DHT22;27178;49.460;10.850;2023-04-01T07:56:42;13.60;71.10
41437;DHT22;27178;49.460;10.850;2023-04-01T07:59:19;13.60;71.00
41437;DHT22;27178;49.460;10.850;2023-04-01T08:01:57;13.60;70.90
41437;DHT22;27178;49.460;10.850;2023-04-01T08:04:41;13.70;70.90
41437;DHT22;27178;49.460;10.850;2023-04-01T08:07:17;13.70;70.50
41437;DHT22;27178;49.460;10.850;2023-04-01T08:09:53;13.70;70.30
41437;DHT22;27178;49.460;10.850;2023-04-01T08:12:35;13.70;70.30
41437;DHT22;27178;49.460;10.850;2023-04-01T08:15:13;13.70;70.20
41437;DHT22;27178;49.460;10.850;2023-04-01T08:17:58;13.70;69.90
41437;DHT22;27178;49.460;10.850;2023-04-01T08:20:36;13.70;70.00
41437;DHT22;27178;49.460;10.850;2023-04-01T08:23:11;13.70;70.10
41437;DHT22;27178;49.460;10.850;2023-04-01T08:25:47;13.80;70.00
41437;DHT22;27178;49.460;10.850;2023-04-01T08:28:21;13.80;70.20
41437;DHT22;27178;49.460;10.850;2023-04-01T08:30:55;13.80;69.70
41437;DHT22;27178;49.460;10.850;2023-04-01T08:33:26;13.80;69.60
41437;DHT22;27178;49.460;10.850;2023-04-01T08:35:59;13.80;69.70
41437;DHT22;27178;49.460;10.850;2023-04-01T08:38:32;13.80;69.50
41437;DHT22;27178;49.460;10.850;2023-04-01T08:44:30;13.80;69.50
41437;DHT22;27178;49.460;10.850;2023-04-01T08:50:36;13.80;69.50
41437;DHT22;27178;49.460;10.850;2023-04-01T08:53:16;13.80;69.30
41437;DHT22;27178;49.460;10.850;2023-04-01T08:55:59;13.80;69.40
41437;DHT22;27178;49.460;10.850;2023-04-01T08:58:54;13.80;69.50
41437;DHT22;27178;49.460;10.850;2023-04-01T09:01:39;13.80;69.40
41437;DHT22;27178;49.460;10.850;2023-04-01T09:04:25;13.80;69.50
41437;DHT22;27178;49.460;10.850;2023-04-01T09:07:12;13.80;69.50
41437;DHT22;27178;49.460;10.850;2023-04-01T09:13:05;13.90;69.50
41437;DHT22;27178;49.460;10.850;2023-04-01T09:15:59;13.80;69.50
41437;DHT22;27178;49.460;10.850;2023-04-01T09:18:47;13.80;69.40
41437;DHT22;27178;49.460;10.850;2023-04-01T09:21:35;13.90;69.60
41437;DHT22;27178;49.460;10.850;2023-04-01T09:24:30;13.90;69.40
41437;DHT22;27178;49.460;10.850;2023-04-01T09:27:05;13.90;69.10
41437;DHT22;27178;49.460;10.850;2023-04-01T09:29:50;13.90;69.50
41437;DHT22;27178;49.460;10.850;2023-04-01T09:32:34;13.90;69.50
41437;DHT22;27178;49.460;10.850;2023-04-01T09:35:22;13.90;69.30
41437;DHT22;27178;49.460;10.850;2023-04-01T09:38:00;13.90;69.30
41437;DHT22;27178;49.460;10.850;2023-04-01T09:40:40;13.90;69.50
41437;DHT22;27178;49.460;10.850;2023-04-01T09:43:28;13.90;69.70
41437;DHT22;27178;49.460;10.850;2023-04-01T09:46:20;13.90;69.70
41437;DHT22;27178;49.460;10.850;2023-04-01T09:52:18;13.90;69.70
41437;DHT22;27178;49.460;10.850;2023-04-01T09:55:15;13.90;69.90
41437;DHT22;27178;49.460;10.850;2023-04-01T09:58:12;13.90;70.40
41437;DHT22;27178;49.460;10.850;2023-04-01T10:07:02;13.80;72.30
41437;DHT22;27178;49.460;10.850;2023-04-01T10:16:03;13.70;72.30
41437;DHT22;27178;49.460;10.850;2023-04-01T10:22:22;13.70;73.10
41437;DHT22;27178;49.460;10.850;2023-04-01T10:37:17;13.60;73.50
41437;DHT22;27178;49.460;10.850;2023-04-01T10:40:32;13.70;73.60
41437;DHT22;27178;49.460;10.850;2023-04-01T10:43:33;13.70;74.10
41437;DHT22;27178;49.460;10.850;2023-04-01T10:55:45;13.70;73.60
41437;DHT22;27178;49.460;10.850;2023-04-01T10:58:46;13.70;73.40
41437;DHT22;27178;49.460;10.850;2023-04-01T11:01:51;13.70;73.60
41437;DHT22;27178;49.460;10.850;2023-04-01T11:05:07;13.70;73.40
41437;DHT22;27178;49.460;10.850;2023-04-01T11:08:17;13.70;73.20
41437;DHT22;27178;49.460;10.850;2023-04-01T11:14:21;13.70;73.10
41437;DHT22;27178;49.460;10.850;2023-04-01T11:17:23;13.70;73.20
41437;DHT22;27178;49.460;10.850;2023-04-01T11:23:19;13.70;73.70
41437;DHT22;27178;49.460;10.850;2023-04-01T11:26:08;13.70;73.60
41437;DHT22;27178;49.460;10.850;2023-04-01T11:29:00;13.70;73.60
41437;DHT22;27178;49.460;10.850;2023-04-01T11:31:39;13.70;73.60
41437;DHT22;27178;49.460;10.850;2023-04-01T11:34:20;13.70;73.60
41437;DHT22;27178;49.460;10.850;2023-04-01T11:37:02;13.70;73.60
41437;DHT22;27178;49.460;10.850;2023-04-01T11:39:40;13.70;73.60
41437;DHT22;27178;49.460;10.850;2023-04-01T11:42:17;13.70;73.60
41437;DHT22;27178;49.460;10.850;2023-04-01T11:44:56;13.70;73.70
41437;DHT22;27178;49.460;10.850;2023-04-01T11:47:48;13.70;73.80
41437;DHT22;27178;49.460;10.850;2023-04-01T11:50:25;13.70;75.00
41437;DHT22;27178;49.460;10.850;2023-04-01T11:53:16;13.70;74.10
41437;DHT22;27178;49.460;10.850;2023-04-01T11:55:57;13.70;74.70
41437;DHT22;27178;49.460;10.850;2023-04-01T11:58:36;13.70;74.70
41437;DHT22;27178;49.460;10.850;2023-04-01T12:01:26;13.70;74.60
41437;DHT22;27178;49.460;10.850;2023-04-01T12:04:26;13.70;75.00
41437;DHT22;27178;49.460;10.850;2023-04-01T12:07:02;13.80;75.10
41437;DHT22;27178;49.460;10.850;2023-04-01T12:09:41;13.80;75.00
41437;DHT22;27178;49.460;10.850;2023-04-01T12:12:18;13.80;75.00
41437;DHT22;27178;49.460;10.850;2023-04-01T12:14:58;13.80;74.80
41437;DHT22;27178;49.460;10.850;2023-04-01T12:17:36;13.90;75.00
41437;DHT22;27178;49.460;10.850;2023-04-01T12:20:26;13.90;75.20
41437;DHT22;27178;49.460;10.850;2023-04-01T12:23:11;13.90;75.20
41437;DHT22;27178;49.460;10.850;2023-04-01T12:26:09;13.90;75.20
41437;DHT22;27178;49.460;10.850;2023-04-01T12:28:48;14.00;75.00
41437;DHT22;27178;49.460;10.850;2023-04-01T12:31:31;13.90;74.70
41437;DHT22;27178;49.460;10.850;2023-04-01T12:34:42;14.00;75.10
41437;DHT22;27178;49.460;10.850;2023-04-01T12:37:17;13.90;75.00
41437;DHT22;27178;49.460;10.850;2023-04-01T12:40:06;13.90;75.10
41437;DHT22;27178;49.460;10.850;2023-04-01T12:42:55;13.90;75.40
41437;DHT22;27178;49.460;10.850;2023-04-01T12:45:30;14.00;75.20
41437;DHT22;27178;49.460;10.850;2023-04-01T12:48:22;14.00;74.90
41437;DHT22;27178;49.460;10.850;2023-04-01T12:54:24;14.00;75.30
41437;DHT22;27178;49.460;10.850;2023-04-01T12:57:14;14.00;75.20
41437;DHT22;27178;49.460;10.850;2023-04-01T12:59:58;14.00;75.20
41437;DHT22;27178;49.460;10.850;2023-04-01T13:02:45;14.00;75.40
41437;DHT22;27178;49.460;10.850;2023-04-01T13:05:55;14.00;75.40
41437;DHT22;27178;49.460;10.850;2023-04-01T13:08:36;14.10;75.30
41437;DHT22;27178;49.460;10.850;2023-04-01T13:11:18;14.10;75.00
41437;DHT22;27178;49.460;10.850;2023-04-01T13:14:32;14.10;74.90
41437;DHT22;27178;49.460;10.850;2023-04-01T13:17:10;14.20;75.20
41437;DHT22;27178;49.460;10.850;2023-04-01T13:19:49;14.20;75.00
41437;DHT22;27178;49.460;10.850;2023-04-01T13:22:39;14.20;75.00
41437;DHT22;27178;49.460;10.850;2023-04-01T13:25:19;14.20;74.70
41437;DHT22;27178;49.460;10.850;2023-04-01T13:27:58;14.20;74.50
41437;DHT22;27178;49.460;10.850;2023-04-01T13:30:36;14.30;75.00
41437;DHT22;27178;49.460;10.850;2023-04-01T13:33:15;14.30;75.00
41437;DHT22;27178;49.460;10.850;2023-04-01T13:35:51;14.30;75.30
41437;DHT22;27178;49.460;10.850;2023-04-01T13:38:43;14.30;74.90
41437;DHT22;27178;49.460;10.850;2023-04-01T13:41:24;14.30;74.70
41437;DHT22;27178;49.460;10.850;2023-04-01T13:44:00;14.30;74.60
41437;DHT22;27178;49.460;10.850;2023-04-01T13:46:49;14.30;74.50
41437;DHT22;27178;49.460;10.850;2023-04-01T13:49:32;14.40;74.60
41437;DHT22;27178;49.460;10.850;2023-04-01T13:55:34;14.30;74.20
41437;DHT22;27178;49.460;10.850;2023-04-01T13:58:37;14.30;73.90
41437;DHT22;27178;49.460;10.850;2023-04-01T14:01:12;14.30;73.80
41437;DHT22;27178;49.460;10.850;2023-04-01T14:03:54;14.30;73.90
41437;DHT22;27178;49.460;10.850;2023-04-01T14:06:34;14.20;73.90
41437;DHT22;27178;49.460;10.850;2023-04-01T14:12:05;14.20;73.90
41437;DHT22;27178;49.460;10.850;2023-04-01T14:14:47;14.20;73.90
41437;DHT22;27178;49.460;10.850;2023-04-01T14:17:35;14.10;73.90
41437;DHT22;27178;49.460;10.850;2023-04-01T14:20:25;14.10;74.30
41437;DHT22;27178;49.460;10.850;2023-04-01T14:23:13;14.10;74.30
41437;DHT22;27178;49.460;10.850;2023-04-01T14:26:02;14.10;74.50
41437;DHT22;27178;49.460;10.850;2023-04-01T14:28:41;14.10;74.40
41437;DHT22;27178;49.460;10.850;2023-04-01T14:31:21;14.10;74.30
41437;DHT22;27178;49.460;10.850;2023-04-01T14:33:59;14.00;74.40
41437;DHT22;27178;49.460;10.850;2023-04-01T14:36:47;14.00;75.40
41437;DHT22;27178;49.460;10.850;2023-04-01T14:39:43;14.00;74.70
41437;DHT22;27178;49.460;10.850;2023-04-01T14:42:41;14.00;74.80
41437;DHT22;27178;49.460;10.850;2023-04-01T14:45:24;14.00;74.80
41437;DHT22;27178;49.460;10.850;2023-04-01T14:47:56;14.00;74.80
41437;DHT22;27178;49.460;10.850;2023-04-01T14:50:29;14.00;74.90
41437;DHT22;27178;49.460;10.850;2023-04-01T14:53:09;14.00;75.00
41437;DHT22;27178;49.460;10.850;2023-04-01T14:55:49;14.00;75.00
41437;DHT22;27178;49.460;10.850;2023-04-01T14:58:20;14.00;75.30
41437;DHT22;27178;49.460;10.850;2023-04-01T15:01:00;14.00;75.40
41437;DHT22;27178;49.460;10.850;2023-04-01T15:03:39;14.10;75.40
41437;DHT22;27178;49.460;10.850;2023-04-01T15:06:35;14.10;75.20
41437;DHT22;27178;49.460;10.850;2023-04-01T15:09:14;14.10;75.00
41437;DHT22;27178;49.460;10.850;2023-04-01T15:11:54;14.10;75.10
41437;DHT22;27178;49.460;10.850;2023-04-01T15:14:46;14.10;74.80
41437;DHT22;27178;49.460;10.850;2023-04-01T15:17:33;14.10;74.80
41437;DHT22;27178;49.460;10.850;2023-04-01T15:20:17;14.10;75.00
41437;DHT22;27178;49.460;10.850;2023-04-01T15:23:09;14.10;74.90
41437;DHT22;27178;49.460;10.850;2023-04-01T15:25:58;14.10;74.80
41437;DHT22;27178;49.460;10.850;2023-04-01T15:28:36;14.10;74.80
41437;DHT22;27178;49.460;10.850;2023-04-01T15:31:13;14.10;74.90
41437;DHT22;27178;49.460;10.850;2023-04-01T15:34:02;14.10;74.70
41437;DHT22;27178;49.460;10.850;2023-04-01T15:36:39;14.00;74.70
41437;DHT22;27178;49.460;10.850;2023-04-01T15:39:13;14.10;74.90
41437;DHT22;27178;49.460;10.850;2023-04-01T15:42:04;14.00;74.70
41437;DHT22;27178;49.460;10.850;2023-04-01T15:44:51;14.00;74.70
41437;DHT22;27178;49.460;10.850;2023-04-01T15:47:42;14.00;74.60
41437;DHT22;27178;49.460;10.850;2023-04-01T15:50:40;14.00;74.10
41437;DHT22;27178;49.460;10.850;2023-04-01T15:53:22;14.00;73.70
41437;DHT22;27178;49.460;10.850;2023-04-01T15:55:56;14.00;74.00
41437;DHT22;27178;49.460;10.850;2023-04-01T15:58:38;13.90;74.00
41437;DHT22;27178;49.460;10.850;2023-04-01T16:01:19;13.90;74.10
41437;DHT22;27178;49.460;10.850;2023-04-01T16:03:57;13.90;74.10
41437;DHT22;27178;49.460;10.850;2023-04-01T16:06:53;13.90;73.90
41437;DHT22;27178;49.460;10.850;2023-04-01T16:09:48;13.90;73.90
41437;DHT22;27178;49.460;10.850;2023-04-01T16:12:29;13.90;73.90
41437;DHT22;27178;49.460;10.850;2023-04-01T16:15:11;13.90;73.90
41437;DHT22;27178;49.460;10.850;2023-04-01T16:17:54;13.80;73.90
41437;DHT22;27178;49.460;10.850;2023-04-01T16:20:43;13.80;74.10
41437;DHT22;27178;49.460;10.850;2023-04-01T16:23:18;13.80;74.10
41437;DHT22;27178;49.460;10.850;2023-04-01T16:25:53;13.80;74.10
41437;DHT22;27178;49.460;10.850;2023-04-01T16:28:30;13.80;74.10
41437;DHT22;27178;49.460;10.850;2023-04-01T16:31:06;13.80;74.00
41437;DHT22;27178;49.460;10.850;2023-04-01T16:33:41;13.70;74.10
41437;DHT22;27178;49.460;10.850;2023-04-01T16:36:22;13.70;74.10
41437;DHT22;27178;49.460;10.850;2023-04-01T16:38:59;13.70;74.20
41437;DHT22;27178;49.460;10.850;2023-04-01T16:41:31;13.70;74.30
41437;DHT22;27178;49.460;10.850;2023-04-01T16:44:13;13.60;74.30
41437;DHT22;27178;49.460;10.850;2023-04-01T16:46:46;13.70;74.50
41437;DHT22;27178;49.460;10.850;2023-04-01T16:49:25;13.60;74.50
41437;DHT22;27178;49.460;10.850;2023-04-01T16:52:12;13.60;74.70
41437;DHT22;27178;49.460;10.850;2023-04-01T16:54:45;13.60;74.70
41437;DHT22;27178;49.460;10.850;2023-04-01T16:57:22;13.60;74.70
41437;DHT22;27178;49.460;10.850;2023-04-01T16:59:57;13.60;74.90
41437;DHT22;27178;49.460;10.850;2023-04-01T17:02:33;13.60;75.00
41437;DHT22;27178;49.460;10.850;2023-04-01T17:05:04;13.60;75.00
41437;DHT22;27178;49.460;10.850;2023-04-01T17:07:45;13.50;75.20
41437;DHT22;27178;49.460;10.850;2023-04-01T17:10:25;13.50;75.20
41437;DHT22;27178;49.460;10.850;2023-04-01T17:15:59;13.50;75.40
41437;DHT22;27178;49.460;10.850;2023-04-01T17:18:35;13.50;75.30
41437;DHT22;27178;49.460;10.850;2023-04-01T17:21:10;13.50;75.10
41437;DHT22;27178;49.460;10.850;2023-04-01T17:23:50;13.50;75.00
41437;DHT22;27178;49.460;10.850;2023-04-01T17:26:30;13.50;75.00
41437;DHT22;27178;49.460;10.850;2023-04-01T17:29:09;13.50;75.10
41437;DHT22;27178;49.460;10.850;2023-04-01T17:31:46;13.50;75.00
41437;DHT22;27178;49.460;10.850;2023-04-01T17:34:38;13.50;75.00